Time;durP1;ratioP1;P1;durP2;ratioP2;P2;SDS_P1;SDS_P2;PMS_P1;PMS_P2;Temp;Humidity;BMP_temperature;BMP_pressure;BME280_temperature;BME280_humidity;BME280_pressure;Samples;Min_cycle;Max_cycle;Signal;HPM_P1;HPM_P2
2023/09/28 00:02:23;;;;;;;3.90;2.97;;;13.50;99.90;;;;;;5023340;28;20025;-71
2023/09/28 00:04:49;;;;;;;5.22;3.05;;;13.40;99.90;;;;;;5022960;28;20060;-71
2023/09/28 00:07:15;;;;;;;3.35;2.97;;;13.40;99.90;;;;;;5028022;28;20674;-72
2023/09/28 00:09:40;;;;;;;6.13;2.72;;;13.50;99.90;;;;;;5027570;28;20155;-71
2023/09/28 00:12:06;;;;;;;3.63;1.90;;;13.50;99.90;;;;;;5027728;28;20032;-70
2023/09/28 00:14:32;;;;;;;1.75;1.65;;;13.50;99.90;;;;;;5020613;28;20029;-71
2023/09/28 00:16:57;;;;;;;3.60;2.08;;;13.40;99.90;;;;;;5029009;28;20068;-71
2023/09/28 00:19:25;;;;;;;2.30;2.10;;;13.20;99.90;;;;;;5026959;28;20152;-70
2023/09/28 00:21:50;;;;;;;3.30;2.25;;;13.20;99.90;;;;;;5032329;28;20017;-69
2023/09/28 00:24:16;;;;;;;3.05;2.17;;;13.10;99.90;;;;;;5033782;28;20033;-70
2023/09/28 00:26:42;;;;;;;5.55;2.65;;;13.00;99.90;;;;;;5030231;28;20025;-70
2023/09/28 00:29:08;;;;;;;5.28;2.33;;;13.00;99.90;;;;;;5030614;28;20713;-70
2023/09/28 00:31:33;;;;;;;4.55;2.90;;;13.00;99.90;;;;;;5029426;28;20548;-70
2023/09/28 00:34:00;;;;;;;6.75;2.92;;;13.00;99.90;;;;;;5024601;28;20037;-71
2023/09/28 00:36:25;;;;;;;3.25;2.70;;;13.00;99.90;;;;;;5030059;28;20059;-71
2023/09/28 00:38:51;;;;;;;5.88;3.28;;;13.10;99.90;;;;;;5023255;28;20356;-68
2023/09/28 00:41:18;;;;;;;4.07;2.70;;;13.10;99.90;;;;;;5029075;28;20036;-70
2023/09/28 00:43:44;;;;;;;6.90;2.67;;;13.10;99.90;;;;;;5026654;28;20076;-69
2023/09/28 00:46:16;;;;;;;2.90;2.60;;;13.10;99.90;;;;;;5029585;28;20323;-69
2023/09/28 00:48:58;;;;;;;7.03;2.58;;;13.00;99.90;;;;;;5028955;28;20833;-69
2023/09/28 00:51:26;;;;;;;2.50;1.98;;;13.00;99.90;;;;;;5020493;28;20040;-69
2023/09/28 00:53:52;;;;;;;4.68;3.35;;;13.00;99.90;;;;;;5028517;28;20037;-69
2023/09/28 00:56:19;;;;;;;4.35;2.30;;;13.00;99.90;;;;;;5030614;28;20025;-71
2023/09/28 00:58:50;;;;;;;4.13;2.20;;;13.10;99.90;;;;;;5030387;28;20029;-70
2023/09/28 01:01:15;;;;;;;4.25;2.20;;;13.00;99.90;;;;;;5026487;28;20028;-69
2023/09/28 01:03:41;;;;;;;3.75;2.75;;;12.90;99.90;;;;;;5024661;28;20655;-70
2023/09/28 01:06:08;;;;;;;5.13;2.50;;;12.90;99.90;;;;;;5032509;28;20103;-69
2023/09/28 01:08:33;;;;;;;4.00;2.65;;;12.80;99.90;;;;;;5031134;28;20155;-68
2023/09/28 01:10:59;;;;;;;3.13;2.53;;;12.80;99.90;;;;;;5030574;28;20056;-69
2023/09/28 01:13:27;;;;;;;2.83;2.53;;;12.80;99.90;;;;;;5027209;28;20041;-70
2023/09/28 01:15:52;;;;;;;4.55;2.97;;;12.80;99.90;;;;;;5022159;28;20514;-67
2023/09/28 01:18:20;;;;;;;3.53;2.88;;;12.80;99.90;;;;;;5025843;28;20037;-68
2023/09/28 01:20:48;;;;;;;3.20;2.42;;;12.80;99.90;;;;;;5030711;28;20032;-66
2023/09/28 01:23:14;;;;;;;4.15;2.78;;;12.80;99.90;;;;;;5024334;28;20532;-66
2023/09/28 01:25:40;;;;;;;3.65;2.20;;;12.90;99.90;;;;;;5029110;28;20037;-66
2023/09/28 01:28:06;;;;;;;3.65;2.40;;;12.90;99.90;;;;;;5025028;28;20033;-67
2023/09/28 01:30:32;;;;;;;2.60;2.22;;;12.80;99.90;;;;;;5033108;28;20771;-66
2023/09/28 01:32:58;;;;;;;4.00;2.15;;;12.80;99.90;;;;;;5026758;28;20133;-67
2023/09/28 01:35:26;;;;;;;2.53;2.30;;;12.70;99.90;;;;;;5025176;28;20035;-66
2023/09/28 01:38:13;;;;;;;3.33;2.30;;;12.70;99.90;;;;;;5025632;28;20060;-67
2023/09/28 01:40:39;;;;;;;6.13;2.45;;;12.70;99.90;;;;;;5028529;28;20048;-67
2023/09/28 01:43:05;;;;;;;4.03;2.05;;;12.70;99.90;;;;;;5026320;28;20032;-66
2023/09/28 01:45:30;;;;;;;5.07;2.28;;;12.70;99.90;;;;;;5026380;28;20037;-67
2023/09/28 01:47:56;;;;;;;2.65;2.45;;;12.70;99.90;;;;;;5028013;28;20547;-68
2023/09/28 01:50:22;;;;;;;2.58;2.33;;;12.60;99.90;;;;;;5029925;28;20025;-68
2023/09/28 01:52:47;;;;;;;3.08;2.15;;;12.50;99.90;;;;;;5024718;28;20447;-69
2023/09/28 01:55:13;;;;;;;3.80;2.35;;;12.50;99.90;;;;;;5027068;28;20807;-68
2023/09/28 01:57:39;;;;;;;2.58;2.20;;;12.50;99.90;;;;;;5025137;28;20026;-67
2023/09/28 02:00:16;;;;;;;3.65;2.47;;;12.50;99.90;;;;;;5028368;28;20049;-67
2023/09/28 02:02:46;;;;;;;4.03;2.30;;;12.50;99.90;;;;;;5026752;28;20021;-68
2023/09/28 02:05:15;;;;;;;3.15;2.22;;;12.50;99.90;;;;;;5020009;28;20955;-69
2023/09/28 02:07:42;;;;;;;2.33;2.13;;;12.50;99.90;;;;;;5017240;28;20037;-68
2023/09/28 02:10:10;;;;;;;5.15;2.55;;;12.50;99.90;;;;;;5024776;28;20024;-68
2023/09/28 02:12:41;;;;;;;6.75;2.22;;;12.50;99.90;;;;;;5026914;28;21170;-68
2023/09/28 02:15:09;;;;;;;3.75;2.22;;;12.50;99.90;;;;;;5021540;28;20052;-68
2023/09/28 02:17:35;;;;;;;2.85;2.25;;;12.50;99.90;;;;;;5020289;28;20135;-67
2023/09/28 02:20:05;;;;;;;4.10;2.60;;;12.50;99.90;;;;;;5023776;28;20484;-68
2023/09/28 02:22:31;;;;;;;2.63;2.25;;;12.50;99.90;;;;;;5029164;28;20036;-68
2023/09/28 02:24:57;;;;;;;2.92;2.30;;;12.50;99.90;;;;;;5026589;28;20398;-68
2023/09/28 02:27:22;;;;;;;4.53;2.20;;;12.50;99.90;;;;;;5027797;28;20364;-68
2023/09/28 02:29:48;;;;;;;3.67;2.58;;;12.40;99.90;;;;;;5031600;28;20029;-67
2023/09/28 02:32:14;;;;;;;17.83;3.38;;;12.40;99.90;;;;;;5030525;28;20132;-67
2023/09/28 02:34:39;;;;;;;4.32;2.83;;;12.40;99.90;;;;;;5026278;28;20132;-67
2023/09/28 02:37:06;;;;;;;4.18;2.90;;;12.40;99.90;;;;;;5026933;28;20048;-67
2023/09/28 02:39:34;;;;;;;3.17;2.25;;;12.40;99.90;;;;;;5030308;28;20106;-68
2023/09/28 02:42:03;;;;;;;2.20;2.00;;;12.40;99.90;;;;;;5029678;28;20063;-68
2023/09/28 02:44:29;;;;;;;5.05;2.15;;;12.40;99.90;;;;;;5026227;28;20032;-67
2023/09/28 02:46:54;;;;;;;5.95;2.35;;;12.30;99.90;;;;;;5030300;28;20945;-67
2023/09/28 02:49:20;;;;;;;3.75;2.28;;;12.20;99.90;;;;;;5026610;28;20062;-67
2023/09/28 02:51:46;;;;;;;4.72;2.30;;;12.20;99.90;;;;;;5028351;28;20057;-68
2023/09/28 02:54:11;;;;;;;3.60;2.70;;;12.20;99.90;;;;;;5028333;28;20168;-67
2023/09/28 02:56:38;;;;;;;3.53;2.30;;;12.20;99.90;;;;;;5024157;28;20033;-67
2023/09/28 02:59:04;;;;;;;3.55;2.47;;;12.30;99.90;;;;;;5027015;28;20131;-68
2023/09/28 03:01:31;;;;;;;6.65;2.30;;;12.30;99.90;;;;;;5029394;28;20524;-68
2023/09/28 03:03:59;;;;;;;3.90;2.67;;;12.30;99.90;;;;;;5023197;28;20082;-67
2023/09/28 03:06:24;;;;;;;2.15;2.00;;;12.30;99.90;;;;;;5030407;28;20710;-67
2023/09/28 03:08:50;;;;;;;2.47;2.22;;;12.30;99.90;;;;;;5028822;28;20029;-67
2023/09/28 03:11:16;;;;;;;5.78;2.20;;;12.30;99.90;;;;;;5026062;28;20429;-67
2023/09/28 03:13:42;;;;;;;3.28;2.03;;;12.20;99.90;;;;;;5032826;28;20026;-67
2023/09/28 03:16:09;;;;;;;3.38;2.00;;;12.20;99.90;;;;;;5027771;28;20031;-66
2023/09/28 03:18:34;;;;;;;2.22;2.00;;;12.30;99.90;;;;;;5023676;28;20132;-66
2023/09/28 03:21:00;;;;;;;2.50;2.28;;;12.30;99.90;;;;;;5022998;28;20655;-66
2023/09/28 03:23:26;;;;;;;4.63;2.58;;;12.30;99.90;;;;;;5026146;28;20091;-66
2023/09/28 03:25:56;;;;;;;3.63;2.50;;;12.20;99.90;;;;;;5027832;28;20037;-70
2023/09/28 03:28:22;;;;;;;3.90;2.08;;;12.10;99.90;;;;;;5029425;28;20493;-70
2023/09/28 03:30:48;;;;;;;3.30;2.28;;;12.10;99.90;;;;;;5027821;28;20514;-70
2023/09/28 03:33:13;;;;;;;7.57;2.38;;;12.00;99.90;;;;;;5027010;28;20092;-70
2023/09/28 03:35:39;;;;;;;3.72;2.88;;;12.00;99.90;;;;;;5028921;28;24366;-69
2023/09/28 03:38:05;;;;;;;3.35;2.53;;;11.90;99.90;;;;;;5028618;28;20059;-69
2023/09/28 03:40:34;;;;;;;3.22;2.20;;;11.90;99.90;;;;;;5026000;28;20048;-69
2023/09/28 03:43:00;;;;;;;5.10;2.70;;;12.00;99.90;;;;;;5029064;28;20029;-70
2023/09/28 03:45:26;;;;;;;2.30;2.10;;;12.00;99.90;;;;;;5027338;28;20029;-70
2023/09/28 03:47:53;;;;;;;2.72;2.45;;;12.00;99.90;;;;;;5031237;28;20079;-70
2023/09/28 03:50:20;;;;;;;5.50;2.15;;;12.00;99.90;;;;;;5028805;28;20025;-69
2023/09/28 03:52:46;;;;;;;4.28;2.75;;;12.00;99.90;;;;;;5027368;28;21457;-69
2023/09/28 03:55:14;;;;;;;2.45;2.25;;;12.00;99.90;;;;;;5028150;28;20033;-70
2023/09/28 03:57:41;;;;;;;3.05;2.47;;;12.00;99.90;;;;;;5027235;28;20045;-69
2023/09/28 04:00:11;;;;;;;4.38;2.53;;;11.90;99.90;;;;;;5025575;28;20045;-70
2023/09/28 04:02:36;;;;;;;7.82;2.72;;;11.90;99.90;;;;;;5025828;28;20075;-70
2023/09/28 04:05:02;;;;;;;3.08;2.30;;;11.90;99.90;;;;;;5026797;28;21371;-70
2023/09/28 04:07:29;;;;;;;4.47;2.55;;;11.90;99.90;;;;;;5028917;28;20640;-70
2023/09/28 04:09:54;;;;;;;5.85;2.63;;;11.90;99.90;;;;;;5027399;28;20061;-70
2023/09/28 04:12:20;;;;;;;2.10;1.92;;;11.90;99.90;;;;;;5020680;28;20116;-70
2023/09/28 04:14:46;;;;;;;2.50;2.30;;;11.80;99.90;;;;;;5022899;28;20038;-69
2023/09/28 04:17:11;;;;;;;3.20;2.42;;;11.80;99.90;;;;;;5028326;28;20028;-69
2023/09/28 04:19:37;;;;;;;3.80;2.42;;;11.80;99.90;;;;;;5028341;28;20041;-70
2023/09/28 04:22:02;;;;;;;3.28;2.30;;;11.70;99.90;;;;;;5024828;28;20104;-69
2023/09/28 04:24:28;;;;;;;3.75;2.20;;;11.70;99.90;;;;;;5029673;28;20045;-69
2023/09/28 04:26:58;;;;;;;4.10;2.65;;;11.80;99.90;;;;;;5029207;28;20029;-69
2023/09/28 04:29:27;;;;;;;5.22;2.80;;;11.80;99.90;;;;;;5025141;28;20572;-69
2023/09/28 04:31:52;;;;;;;5.32;2.97;;;11.80;99.90;;;;;;5023904;28;20024;-69
2023/09/28 04:34:18;;;;;;;6.75;2.72;;;11.80;99.90;;;;;;5023167;28;20037;-70
2023/09/28 04:36:45;;;;;;;3.88;2.35;;;11.90;99.90;;;;;;5030923;28;20141;-69
2023/09/28 04:39:11;;;;;;;2.92;2.50;;;11.90;99.90;;;;;;5025021;28;20088;-69
2023/09/28 04:41:37;;;;;;;7.57;2.90;;;11.90;99.90;;;;;;5023914;28;22509;-69
2023/09/28 04:44:04;;;;;;;6.65;2.58;;;11.90;99.90;;;;;;5022592;28;20037;-69
2023/09/28 04:46:30;;;;;;;5.35;2.92;;;11.90;99.90;;;;;;5022670;28;20041;-69
2023/09/28 04:48:56;;;;;;;9.40;2.88;;;11.90;99.90;;;;;;5021249;28;20032;-68
2023/09/28 04:51:22;;;;;;;2.92;2.17;;;11.90;99.90;;;;;;5022477;28;20035;-69
2023/09/28 04:53:48;;;;;;;6.80;2.25;;;11.90;99.90;;;;;;5021669;28;20037;-69
2023/09/28 04:56:15;;;;;;;2.70;2.40;;;11.90;99.90;;;;;;5023361;28;20053;-68
2023/09/28 04:58:41;;;;;;;3.20;2.50;;;11.80;99.90;;;;;;5027681;28;20072;-66
2023/09/28 05:01:07;;;;;;;2.88;2.15;;;11.70;99.90;;;;;;5023670;28;20674;-65
2023/09/28 05:03:33;;;;;;;4.57;2.80;;;11.70;99.90;;;;;;5028115;28;20062;-65
2023/09/28 05:05:59;;;;;;;3.05;2.33;;;11.70;99.90;;;;;;5028124;28;20381;-65
2023/09/28 05:08:25;;;;;;;4.05;2.67;;;11.70;99.90;;;;;;5030625;28;20482;-65
2023/09/28 05:10:52;;;;;;;2.13;1.92;;;11.80;99.90;;;;;;5026069;28;20048;-66
2023/09/28 05:13:19;;;;;;;4.38;2.30;;;11.80;99.90;;;;;;5031451;28;20075;-66
2023/09/28 05:15:45;;;;;;;2.22;1.77;;;11.80;99.90;;;;;;5025173;28;20159;-65
2023/09/28 05:18:10;;;;;;;7.45;2.45;;;11.90;99.90;;;;;;5027231;28;21212;-66
2023/09/28 05:20:36;;;;;;;5.70;2.42;;;12.00;99.90;;;;;;5030978;28;20037;-64
2023/09/28 05:23:03;;;;;;;4.53;2.65;;;12.00;99.90;;;;;;5026605;28;20057;-65
2023/09/28 05:25:29;;;;;;;5.00;2.42;;;12.10;99.90;;;;;;5023983;28;20032;-64
2023/09/28 05:27:55;;;;;;;3.03;2.72;;;12.20;99.90;;;;;;5027147;28;20026;-65
2023/09/28 05:30:20;;;;;;;4.40;3.53;;;12.30;99.90;;;;;;5028570;28;20032;-65
2023/09/28 05:32:46;;;;;;;5.47;2.75;;;12.30;99.90;;;;;;5030403;28;20140;-65
2023/09/28 05:35:12;;;;;;;3.72;2.97;;;12.50;99.90;;;;;;5029270;28;20116;-70
2023/09/28 05:37:37;;;;;;;3.38;2.88;;;12.60;99.90;;;;;;5027102;28;20053;-70
2023/09/28 05:40:04;;;;;;;21.55;3.63;;;12.70;99.90;;;;;;5023834;28;20061;-69
2023/09/28 05:42:34;;;;;;;8.70;2.72;;;12.80;99.90;;;;;;5026120;28;20021;-70
2023/09/28 05:45:00;;;;;;;3.60;2.47;;;12.80;99.90;;;;;;5012621;28;20101;-69
2023/09/28 05:47:26;;;;;;;4.50;2.67;;;12.90;99.90;;;;;;5031810;28;20068;-70
2023/09/28 05:49:52;;;;;;;3.22;2.50;;;12.80;99.90;;;;;;5028648;28;20033;-70
2023/09/28 05:52:18;;;;;;;5.07;2.58;;;12.90;99.90;;;;;;5028221;28;20025;-65
2023/09/28 05:54:44;;;;;;;6.78;3.00;;;13.00;99.90;;;;;;5021743;28;20048;-70
2023/09/28 05:57:11;;;;;;;5.82;2.70;;;13.10;99.90;;;;;;5029547;28;20658;-69
2023/09/28 05:59:37;;;;;;;4.85;3.30;;;13.10;99.90;;;;;;5026421;28;20041;-69
2023/09/28 06:02:02;;;;;;;6.90;2.88;;;13.20;99.90;;;;;;5027520;28;20064;-70
2023/09/28 06:04:28;;;;;;;5.75;2.88;;;13.40;99.90;;;;;;5031707;28;20135;-69
2023/09/28 06:06:54;;;;;;;3.80;3.15;;;13.60;99.90;;;;;;5032011;28;20652;-69
2023/09/28 06:09:19;;;;;;;7.88;3.40;;;13.80;99.90;;;;;;5026037;28;20541;-69
2023/09/28 06:11:46;;;;;;;5.47;3.47;;;13.90;99.90;;;;;;5025105;28;20272;-69
2023/09/28 06:14:15;;;;;;;3.85;3.33;;;14.20;99.90;;;;;;5029654;28;20098;-69
2023/09/28 06:16:42;;;;;;;5.68;3.45;;;14.30;99.90;;;;;;5031105;28;20028;-70
2023/09/28 06:19:09;;;;;;;6.40;3.33;;;14.50;99.90;;;;;;5024455;28;20056;-70
2023/09/28 06:21:35;;;;;;;6.47;3.80;;;14.50;99.90;;;;;;5027685;28;20482;-69
2023/09/28 06:24:02;;;;;;;6.30;4.25;;;14.60;99.90;;;;;;5026033;28;20033;-70
2023/09/28 06:26:27;;;;;;;4.65;3.58;;;14.70;99.90;;;;;;5027491;28;20032;-69
2023/09/28 06:28:54;;;;;;;4.43;4.00;;;14.80;99.90;;;;;;5024220;28;21258;-70
2023/09/28 06:31:20;;;;;;;6.82;4.65;;;14.80;99.90;;;;;;5024377;28;20134;-70
2023/09/28 06:33:48;;;;;;;8.20;3.85;;;14.90;99.90;;;;;;5022687;28;20454;-71
2023/09/28 06:36:15;;;;;;;10.10;4.28;;;15.00;99.90;;;;;;5029087;28;20037;-70
2023/09/28 06:38:41;;;;;;;7.28;4.35;;;15.10;99.90;;;;;;5029368;28;20513;-70
2023/09/28 06:41:06;;;;;;;6.05;4.10;;;15.20;99.90;;;;;;5022573;28;20040;-69
2023/09/28 07:04:33;;;;;;;6.95;4.53;;;16.70;99.90;;;;;;5047951;27;20550;-70
2023/09/28 07:06:58;;;;;;;6.45;4.05;;;17.00;99.90;;;;;;5089224;27;20055;-70
2023/09/28 07:09:24;;;;;;;8.18;3.95;;;17.20;99.90;;;;;;5090565;27;20093;-70
2023/09/28 07:11:50;;;;;;;6.82;3.95;;;17.50;99.90;;;;;;5084599;27;20598;-71
2023/09/28 07:14:16;;;;;;;5.75;4.20;;;17.70;99.90;;;;;;5079144;28;20051;-70
2023/09/28 07:16:41;;;;;;;7.45;3.85;;;18.00;99.90;;;;;;5081123;28;20101;-71
2023/09/28 07:19:07;;;;;;;5.18;3.78;;;18.10;99.90;;;;;;5089784;28;20617;-71
2023/09/28 07:21:33;;;;;;;9.05;4.05;;;18.30;99.90;;;;;;5082562;28;20028;-70
2023/09/28 07:24:00;;;;;;;7.03;3.95;;;18.50;99.90;;;;;;5085565;28;20045;-71
2023/09/28 07:26:25;;;;;;;8.95;4.45;;;18.80;99.90;;;;;;5084899;28;20032;-71
2023/09/28 07:28:53;;;;;;;10.55;4.47;;;19.00;99.90;;;;;;5092201;27;20031;-71
2023/09/28 07:31:20;;;;;;;8.07;4.18;;;19.20;99.90;;;;;;5091338;28;20028;-72
2023/09/28 07:33:46;;;;;;;6.07;4.00;;;19.30;99.90;;;;;;5087603;28;20032;-69
2023/09/28 07:36:12;;;;;;;7.20;3.90;;;19.30;99.90;;;;;;5067768;28;20100;-70
2023/09/28 07:38:38;;;;;;;5.00;3.67;;;19.40;99.90;;;;;;5092375;28;20054;-70
2023/09/28 07:41:04;;;;;;;6.40;3.45;;;19.50;99.90;;;;;;5089926;27;20087;-70
2023/09/28 07:43:30;;;;;;;6.55;3.83;;;19.70;99.90;;;;;;5088693;28;20198;-66
2023/09/28 07:45:56;;;;;;;5.35;3.67;;;19.90;99.90;;;;;;5086498;28;20039;-68
2023/09/28 07:48:22;;;;;;;6.68;3.88;;;20.10;99.90;;;;;;5072086;28;20451;-68
2023/09/28 07:50:48;;;;;;;7.88;3.72;;;20.20;99.90;;;;;;5089033;28;20093;-66
2023/09/28 07:53:13;;;;;;;4.70;3.25;;;20.30;99.90;;;;;;5089417;28;20020;-66
2023/09/28 07:55:40;;;;;;;7.00;3.47;;;20.30;99.90;;;;;;5085433;28;20039;-67
2023/09/28 07:58:05;;;;;;;11.00;3.58;;;20.50;99.90;;;;;;5085848;28;20667;-67
2023/09/28 08:00:32;;;;;;;4.10;3.25;;;20.50;99.90;;;;;;5086008;28;20039;-67
2023/09/28 08:02:57;;;;;;;5.63;3.65;;;20.60;99.90;;;;;;5090154;28;20085;-71
2023/09/28 08:05:23;;;;;;;5.15;3.75;;;20.70;99.90;;;;;;5077656;28;20048;-71
2023/09/28 08:07:49;;;;;;;4.60;3.58;;;20.70;99.90;;;;;;5088865;28;20144;-71
2023/09/28 08:10:15;;;;;;;5.35;3.40;;;20.70;99.90;;;;;;5091739;28;20039;-71
2023/09/28 08:12:42;;;;;;;6.45;3.35;;;20.70;99.90;;;;;;5087677;28;20036;-71
2023/09/28 08:15:08;;;;;;;6.85;3.67;;;20.90;99.90;;;;;;5083751;28;20024;-71
2023/09/28 08:17:36;;;;;;;6.25;3.55;;;21.10;99.90;;;;;;5087217;28;20063;-71
2023/09/28 08:20:03;;;;;;;7.68;4.25;;;21.20;99.90;;;;;;5083989;28;20181;-71
2023/09/28 08:22:28;;;;;;;6.53;3.63;;;21.30;99.90;;;;;;5087812;28;20498;-71
2023/09/28 08:24:54;;;;;;;8.45;4.07;;;21.30;99.90;;;;;;5082881;28;20055;-71
2023/09/28 08:27:20;;;;;;;9.85;4.03;;;21.30;99.90;;;;;;5078738;28;20044;-71
2023/09/28 08:29:45;;;;;;;8.20;3.88;;;21.10;99.90;;;;;;5090800;28;20094;-72
2023/09/28 08:32:11;;;;;;;4.63;3.33;;;21.20;99.90;;;;;;5089884;28;20027;-71
2023/09/28 08:34:36;;;;;;;5.30;3.60;;;21.30;99.90;;;;;;5091178;28;20825;-72
2023/09/28 08:37:03;;;;;;;5.47;3.60;;;21.30;99.90;;;;;;5084930;28;20040;-71
2023/09/28 08:39:30;;;;;;;4.82;3.53;;;21.40;99.90;;;;;;5086681;28;20046;-67
2023/09/28 08:42:04;;;;;;;8.75;3.80;;;21.50;99.90;;;;;;5094316;27;20118;-67
2023/09/28 08:44:33;;;;;;;5.97;3.80;;;21.60;99.90;;;;;;5083427;28;20395;-68
2023/09/28 08:47:00;;;;;;;7.75;3.63;;;21.80;99.90;;;;;;5085219;27;20035;-67
2023/09/28 08:49:27;;;;;;;4.32;3.40;;;21.90;99.90;;;;;;5071399;28;20782;-67
2023/09/28 08:51:57;;;;;;;5.43;3.38;;;21.90;99.90;;;;;;5087358;28;20032;-67
2023/09/28 08:54:27;;;;;;;6.85;3.35;;;22.00;99.90;;;;;;5085567;28;20039;-67
2023/09/28 08:56:57;;;;;;;8.93;3.08;;;22.00;99.90;;;;;;5091082;27;20034;-67
2023/09/28 08:59:28;;;;;;;5.15;3.13;;;22.00;99.90;;;;;;5072090;28;20047;-67
2023/09/28 09:01:55;;;;;;;6.80;3.45;;;21.90;99.90;;;;;;5094508;28;20043;-67
2023/09/28 09:04:20;;;;;;;6.38;3.80;;;22.00;99.90;;;;;;5086489;28;20216;-68
2023/09/28 09:06:47;;;;;;;6.97;3.38;;;22.10;99.90;;;;;;5087733;27;20695;-67
2023/09/28 09:09:16;;;;;;;5.55;3.30;;;22.30;99.90;;;;;;5088854;27;20241;-65
2023/09/28 09:11:50;;;;;;;5.68;3.58;;;22.30;99.90;;;;;;5090496;28;20046;-68
2023/09/28 09:14:16;;;;;;;8.57;3.13;;;22.40;99.90;;;;;;5089115;28;20028;-67
2023/09/28 09:16:42;;;;;;;5.30;3.33;;;22.50;99.90;;;;;;5091106;28;20572;-68
2023/09/28 09:19:13;;;;;;;5.63;3.30;;;22.60;99.90;;;;;;5090702;28;20035;-67
2023/09/28 09:21:41;;;;;;;9.32;3.45;;;22.60;99.90;;;;;;5091283;28;20054;-68
2023/09/28 09:24:10;;;;;;;4.35;3.25;;;22.60;99.90;;;;;;5073876;28;20024;-66
2023/09/28 09:26:42;;;;;;;4.43;3.13;;;22.70;99.90;;;;;;5094263;27;20043;-67
2023/09/28 09:29:10;;;;;;;6.68;3.13;;;22.90;99.90;;;;;;5089818;28;20537;-67
2023/09/28 09:31:39;;;;;;;6.88;3.53;;;23.00;99.90;;;;;;5094408;27;20078;-67
2023/09/28 09:34:05;;;;;;;5.70;3.25;;;23.10;99.90;;;;;;5093107;28;20043;-67
2023/09/28 09:36:31;;;;;;;6.55;3.47;;;23.10;99.90;;;;;;5082437;28;20055;-67
2023/09/28 09:38:58;;;;;;;6.88;3.65;;;23.10;99.90;;;;;;5076566;28;20444;-67
2023/09/28 09:41:24;;;;;;;5.35;3.35;;;23.10;99.90;;;;;;5071859;28;20043;-67
2023/09/28 09:43:51;;;;;;;3.92;3.05;;;23.10;99.90;;;;;;5091876;27;20036;-67
2023/09/28 09:46:17;;;;;;;8.90;3.95;;;23.20;99.90;;;;;;5094657;27;20024;-67
2023/09/28 09:48:44;;;;;;;4.95;3.25;;;23.30;99.90;;;;;;5094800;27;20028;-67
2023/09/28 09:51:13;;;;;;;8.55;3.65;;;23.40;99.90;;;;;;5086076;27;20056;-67
2023/09/28 09:53:43;;;;;;;4.28;3.50;;;23.40;99.90;;;;;;5093508;28;20035;-67
2023/09/28 09:56:09;;;;;;;4.25;3.42;;;23.50;99.90;;;;;;5088471;28;20032;-67
2023/09/28 09:58:57;;;;;;;8.10;3.80;;;23.60;99.90;;;;;;5084809;28;20090;-67
2023/09/28 10:01:23;;;;;;;7.28;3.42;;;23.80;99.90;;;;;;5095823;27;20034;-67
2023/09/28 10:03:52;;;;;;;6.93;3.67;;;24.00;99.90;;;;;;5093223;27;20036;-67
2023/09/28 10:06:22;;;;;;;4.50;3.03;;;24.10;99.90;;;;;;5091383;28;20449;-67
2023/09/28 10:08:49;;;;;;;5.38;3.10;;;24.20;99.90;;;;;;5094516;28;20036;-67
2023/09/28 10:11:16;;;;;;;6.57;3.42;;;24.30;99.90;;;;;;5089826;27;20024;-67
2023/09/28 10:13:43;;;;;;;4.40;3.22;;;24.30;99.90;;;;;;5091696;28;20234;-67
2023/09/28 10:16:13;;;;;;;4.57;3.00;;;24.40;99.90;;;;;;5070652;28;20036;-67
2023/09/28 10:18:41;;;;;;;7.15;3.50;;;24.40;99.90;;;;;;5085654;28;20307;-67
2023/09/28 10:21:07;;;;;;;6.07;3.30;;;24.40;99.90;;;;;;5090365;28;20031;-67
2023/09/28 10:23:33;;;;;;;9.52;2.95;;;24.50;99.90;;;;;;5077853;28;20032;-67
2023/09/28 10:26:16;;;;;;;7.18;3.28;;;24.60;99.90;;;;;;5086716;28;20549;-67
2023/09/28 10:29:05;;;;;;;6.60;3.17;;;24.60;99.90;;;;;;5081036;28;20130;-71
2023/09/28 10:31:37;;;;;;;6.00;3.00;;;24.80;99.90;;;;;;5087741;27;20072;-72
2023/09/28 10:34:04;;;;;;;5.63;3.20;;;24.90;99.90;;;;;;5093204;27;20067;-72
2023/09/28 10:36:32;;;;;;;4.55;3.55;;;25.00;99.90;;;;;;5071402;28;20027;-71
2023/09/28 10:39:14;;;;;;;4.63;3.10;;;25.00;99.90;;;;;;5069187;28;20105;-71
2023/09/28 10:41:51;;;;;;;7.15;3.30;;;25.00;99.90;;;;;;5071928;27;20585;-72
2023/09/28 10:44:18;;;;;;;8.13;3.20;;;25.10;99.90;;;;;;5067306;28;20951;-70
2023/09/28 10:46:47;;;;;;;5.10;2.83;;;25.10;99.90;;;;;;5087694;28;20044;-71
2023/09/28 10:49:15;;;;;;;4.28;3.03;;;25.20;99.90;;;;;;5087261;28;20043;-70
2023/09/28 10:51:41;;;;;;;8.30;3.25;;;25.30;99.90;;;;;;5087789;28;20042;-70
2023/09/28 10:54:08;;;;;;;9.60;2.85;;;25.40;99.90;;;;;;5091734;28;20515;-70
2023/09/28 10:56:34;;;;;;;6.32;3.30;;;25.50;99.90;;;;;;5092082;28;20054;-71
2023/09/28 10:59:02;;;;;;;7.82;3.05;;;25.50;99.90;;;;;;5090550;28;20055;-71
2023/09/28 11:01:28;;;;;;;5.80;2.65;;;25.60;99.90;;;;;;5086400;27;20050;-70
2023/09/28 11:03:54;;;;;;;4.13;3.10;;;25.70;99.90;;;;;;5082834;27;20648;-70
2023/09/28 11:06:21;;;;;;;6.10;2.90;;;25.60;99.10;;;;;;5086762;28;20039;-70
2023/09/28 11:08:49;;;;;;;3.92;3.03;;;25.60;98.20;;;;;;5081513;28;20031;-70
2023/09/28 11:11:17;;;;;;;4.68;2.88;;;25.70;98.50;;;;;;5086617;27;20040;-71
2023/09/28 11:13:44;;;;;;;4.88;2.92;;;25.70;97.50;;;;;;5091620;28;20122;-71
2023/09/28 11:16:11;;;;;;;10.25;3.40;;;25.70;96.30;;;;;;5090934;28;20063;-71
2023/09/28 11:18:38;;;;;;;8.43;2.80;;;25.70;96.30;;;;;;5084830;28;20027;-70
2023/09/28 11:21:05;;;;;;;7.43;2.72;;;25.80;96.30;;;;;;5088200;28;20047;-71
2023/09/28 11:23:30;;;;;;;8.13;2.92;;;25.90;95.90;;;;;;5089957;28;20044;-71
2023/09/28 11:25:58;;;;;;;4.32;3.00;;;25.80;95.70;;;;;;5088588;28;20027;-71
2023/09/28 11:28:24;;;;;;;4.82;2.45;;;25.80;95.70;;;;;;5092720;28;20028;-71
2023/09/28 11:31:09;;;;;;;8.27;2.70;;;25.90;95.20;;;;;;5093638;27;20095;-71
2023/09/28 11:33:39;;;;;;;7.60;2.70;;;26.10;95.00;;;;;;5090710;28;20077;-71
2023/09/28 11:36:11;;;;;;;5.43;3.00;;;26.10;95.10;;;;;;5085626;28;20595;-72
2023/09/28 11:38:39;;;;;;;6.40;2.97;;;26.10;94.90;;;;;;5089496;28;20175;-71
2023/09/28 11:41:05;;;;;;;4.20;2.80;;;26.30;94.20;;;;;;5089032;28;20599;-72
2023/09/28 11:43:47;;;;;;;5.20;2.75;;;26.40;93.00;;;;;;5089750;27;20046;-66
2023/09/28 11:46:23;;;;;;;6.15;3.03;;;26.30;91.70;;;;;;5087125;28;20040;-66
2023/09/28 11:49:09;;;;;;;3.17;2.70;;;26.10;91.60;;;;;;5089599;28;20023;-67
2023/09/28 11:51:36;;;;;;;10.63;3.25;;;26.10;91.30;;;;;;5089114;28;20468;-66
2023/09/28 11:54:06;;;;;;;4.88;2.72;;;26.10;92.60;;;;;;5085284;28;20092;-66
2023/09/28 11:56:32;;;;;;;7.90;3.55;;;26.10;92.80;;;;;;5089391;28;20036;-66
2023/09/28 11:58:58;;;;;;;5.00;2.83;;;26.30;92.70;;;;;;5088487;28;20044;-66
2023/09/28 12:01:24;;;;;;;7.82;2.67;;;26.40;92.80;;;;;;5090577;28;20046;-66
2023/09/28 12:03:49;;;;;;;5.32;2.83;;;26.50;93.10;;;;;;5087695;28;20028;-66
2023/09/28 12:06:20;;;;;;;4.00;2.58;;;26.60;91.60;;;;;;5088835;28;20039;-67
2023/09/28 12:08:46;;;;;;;5.72;3.10;;;26.50;91.30;;;;;;5092114;28;20042;-66
2023/09/28 12:11:12;;;;;;;6.93;2.70;;;26.50;91.30;;;;;;5091533;28;20032;-66
2023/09/28 12:13:38;;;;;;;5.68;2.80;;;26.60;90.90;;;;;;5093299;28;20047;-66
2023/09/28 12:16:05;;;;;;;6.10;2.40;;;26.60;90.50;;;;;;5093632;27;20035;-66
2023/09/28 12:18:32;;;;;;;2.97;2.58;;;26.50;90.00;;;;;;5091088;28;20024;-67
2023/09/28 12:20:57;;;;;;;5.28;2.90;;;26.50;90.40;;;;;;5097075;27;20075;-67
2023/09/28 12:23:23;;;;;;;4.78;2.60;;;26.40;90.20;;;;;;5094898;28;20548;-66
2023/09/28 12:25:48;;;;;;;4.80;2.70;;;26.40;90.50;;;;;;5098192;27;20100;-66
2023/09/28 12:28:14;;;;;;;3.95;2.70;;;26.50;90.50;;;;;;5093962;28;20032;-66
2023/09/28 12:30:40;;;;;;;5.45;3.08;;;26.60;89.10;;;;;;5097497;27;20043;-66
2023/09/28 12:33:08;;;;;;;6.78;2.95;;;26.80;89.60;;;;;;5092347;27;20101;-66
2023/09/28 12:35:35;;;;;;;5.53;2.47;;;26.90;87.90;;;;;;5095581;27;20061;-67
2023/09/28 12:38:04;;;;;;;5.32;2.97;;;27.00;85.70;;;;;;5091084;27;20032;-67
2023/09/28 12:40:32;;;;;;;3.28;2.20;;;27.00;86.10;;;;;;5095062;28;20142;-67
2023/09/28 12:43:05;;;;;;;9.00;2.92;;;27.00;87.60;;;;;;5092771;27;20077;-67
2023/09/28 12:45:35;;;;;;;3.25;2.78;;;27.10;85.20;;;;;;5095117;28;20043;-66
2023/09/28 12:48:04;;;;;;;5.60;2.50;;;27.20;81.40;;;;;;5095424;28;21150;-67
2023/09/28 12:50:30;;;;;;;4.57;2.63;;;27.20;80.50;;;;;;5092409;28;20044;-67
2023/09/28 12:52:57;;;;;;;5.25;2.58;;;27.30;82.00;;;;;;5092659;28;20036;-67
2023/09/28 12:55:23;;;;;;;4.30;2.80;;;27.30;81.90;;;;;;5088597;28;20143;-73
2023/09/28 12:57:52;;;;;;;4.95;2.78;;;27.30;80.60;;;;;;5094983;28;20071;-73
2023/09/28 13:00:18;;;;;;;2.60;2.38;;;27.20;80.90;;;;;;5092688;28;20039;-72
2023/09/28 13:02:46;;;;;;;6.70;2.70;;;27.10;80.10;;;;;;5091211;28;20365;-73
2023/09/28 13:05:13;;;;;;;5.50;2.55;;;27.10;78.80;;;;;;5092312;27;20050;-72
2023/09/28 13:07:40;;;;;;;4.95;2.42;;;27.10;79.00;;;;;;5091758;28;20043;-72